createdAt,value
2019-04-21T00:01:06.702Z,5.82
2019-04-21T00:03:40.802Z,5.99
2019-04-21T00:06:33.630Z,5.95
2019-04-21T00:09:02.359Z,5.80
2019-04-21T00:11:36.255Z,5.68
2019-04-21T00:13:56.197Z,5.64
2019-04-21T00:16:23.784Z,5.42
2019-04-21T00:19:02.589Z,5.60
2019-04-21T00:21:34.504Z,5.55
2019-04-21T00:24:24.812Z,5.46
2019-04-21T00:27:03.828Z,5.33
2019-04-21T00:32:05.601Z,5.22
2019-04-21T00:34:23.722Z,5.31
2019-04-21T00:37:08.317Z,5.28
2019-04-21T00:39:55.802Z,5.22
2019-04-21T00:42:18.404Z,5.31
2019-04-21T00:44:44.377Z,5.36
2019-04-21T00:47:27.786Z,5.35
2019-04-21T00:50:03.571Z,5.23
2019-04-21T00:52:58.159Z,5.11
2019-04-21T00:55:44.598Z,5.13
2019-04-21T00:58:19.441Z,5.00
2019-04-21T01:00:46.226Z,5.12
2019-04-21T01:03:20.633Z,5.18
2019-04-21T01:05:51.699Z,5.26
2019-04-21T01:08:21.794Z,5.33
2019-04-21T01:10:45.860Z,5.50
2019-04-21T01:13:27.282Z,5.47
2019-04-21T01:15:59.578Z,5.61
2019-04-21T01:18:32.899Z,5.54
2019-04-21T01:20:42.760Z,5.44
2019-04-21T01:23:14.626Z,5.23
2019-04-21T01:26:00.821Z,5.14
2019-04-21T01:28:38.214Z,5.27
2019-04-21T01:31:11.012Z,5.31
2019-04-21T01:33:44.699Z,5.23
2019-04-21T01:36:14.513Z,5.20
2019-04-21T01:38:58.004Z,5.23
2019-04-21T01:41:29.602Z,5.16
2019-04-21T01:43:53.518Z,4.95
2019-04-21T01:46:21.887Z,4.86
2019-04-21T01:48:54.239Z,4.90
2019-04-21T01:51:26.033Z,4.84
2019-04-21T01:54:09.244Z,5.00
2019-04-21T01:56:53.981Z,5.04
2019-04-21T01:59:14.098Z,4.88
2019-04-21T02:02:02.058Z,4.95
2019-04-21T02:04:36.449Z,4.90
2019-04-21T02:07:03.097Z,4.87
2019-04-21T02:09:38.169Z,4.70
2019-04-21T02:12:13.503Z,4.75
2019-04-21T02:14:51.141Z,4.70
2019-04-21T02:17:18.707Z,4.84
2019-04-21T02:19:44.589Z,4.84
2019-04-21T02:22:24.618Z,4.82
2019-04-21T02:24:57.788Z,4.78
2019-04-21T02:27:29.838Z,4.92
2019-04-21T02:30:03.473Z,4.89
2019-04-21T02:32:45.733Z,4.85
2019-04-21T02:37:55.594Z,4.99
2019-04-21T02:40:22.327Z,4.98
2019-04-21T02:45:34.238Z,4.76
2019-04-21T02:50:34.053Z,4.82
2019-04-21T02:53:01.421Z,4.80
2019-04-21T02:55:42.050Z,4.89
2019-04-21T02:58:18.729Z,4.88
2019-04-21T03:00:45.034Z,5.00
2019-04-21T03:03:41.734Z,5.03
2019-04-21T03:06:31.440Z,5.13
2019-04-21T03:11:24.519Z,5.26
2019-04-21T03:13:56.761Z,5.32
2019-04-21T03:16:31.498Z,5.31
2019-04-21T03:19:15.360Z,5.58
2019-04-21T03:21:28.967Z,5.73
2019-04-21T03:24:04.823Z,5.84
2019-04-21T03:26:50.474Z,5.91
2019-04-21T03:29:12.520Z,5.88
2019-04-21T03:32:04.376Z,6.00
2019-04-21T03:39:18.314Z,7.04
2019-04-21T03:42:01.974Z,7.05
2019-04-21T03:44:26.317Z,7.06
2019-04-21T03:46:55.673Z,7.14
2019-04-21T03:49:40.374Z,7.00
2019-04-21T03:52:09.001Z,7.03
2019-04-21T03:54:37.042Z,7.10
2019-04-21T03:59:36.791Z,8.28
2019-04-21T04:02:31.233Z,10.03
2019-04-21T04:04:52.998Z,11.35
2019-04-21T04:07:44.214Z,13.58
2019-04-21T04:12:36.554Z,14.77
2019-04-21T04:15:12.102Z,14.28
2019-04-21T04:17:40.062Z,14.39
2019-04-21T04:20:22.212Z,14.56
2019-04-21T04:25:17.500Z,16.34
2019-04-21T04:30:32.000Z,16.71
2019-04-21T04:33:02.518Z,16.68
2019-04-21T04:35:46.210Z,17.89
2019-04-21T04:38:03.338Z,18.43
2019-04-21T04:41:04.347Z,16.58
2019-04-21T04:43:30.478Z,16.42
2019-04-21T04:48:29.168Z,17.21
2019-04-21T04:51:02.040Z,15.59
2019-04-21T04:56:12.338Z,15.02
2019-04-21T04:58:59.562Z,14.66
2019-04-21T05:14:18.282Z,16.72
2019-04-21T05:23:59.933Z,15.77
2019-04-21T05:26:34.546Z,18.21
2019-04-21T05:29:01.844Z,16.98
2019-04-21T05:31:50.267Z,17.64
2019-04-21T05:34:27.398Z,18.34
2019-04-21T05:37:02.651Z,16.78
2019-04-21T05:39:36.095Z,17.24
2019-04-21T05:42:00.727Z,17.41
2019-04-21T05:44:59.918Z,17.98
2019-04-21T05:47:25.005Z,17.59
2019-04-21T05:49:49.892Z,17.29
2019-04-21T05:52:22.794Z,18.71
2019-04-21T05:55:03.971Z,18.44
2019-04-21T05:57:29.116Z,17.39
2019-04-21T06:00:06.189Z,16.03
2019-04-21T06:02:36.663Z,15.20
2019-04-21T06:05:47.399Z,16.43
2019-04-21T06:07:41.271Z,16.87
2019-04-21T06:10:18.371Z,16.15
2019-04-21T06:12:53.813Z,16.76
2019-04-21T06:15:19.695Z,16.33
2019-04-21T06:17:57.878Z,16.65
2019-04-21T06:20:28.787Z,16.13
2019-04-21T06:23:00.851Z,15.25
2019-04-21T06:25:57.508Z,15.68
2019-04-21T06:28:03.601Z,14.78
2019-04-21T06:30:42.389Z,14.32
2019-04-21T06:33:01.746Z,14.05
2019-04-21T06:36:09.006Z,13.08
2019-04-21T06:38:28.429Z,13.23
2019-04-21T06:40:48.440Z,12.99
2019-04-21T06:43:40.371Z,13.19
2019-04-21T06:45:54.219Z,13.10
2019-04-21T06:48:37.313Z,13.30
2019-04-21T06:51:06.977Z,13.48
2019-04-21T06:53:40.847Z,13.37
2019-04-21T06:56:10.482Z,13.17
2019-04-21T06:58:35.578Z,12.92
2019-04-21T07:01:15.843Z,12.88
2019-04-21T07:03:49.306Z,12.61
2019-04-21T07:06:12.704Z,12.82
2019-04-21T07:08:52.940Z,13.11
2019-04-21T07:11:19.871Z,13.02
2019-04-21T07:14:01.930Z,13.40
2019-04-21T07:16:25.699Z,13.36
2019-04-21T07:19:07.150Z,13.48
2019-04-21T07:21:32.461Z,13.02
2019-04-21T07:24:05.408Z,13.01
2019-04-21T07:26:36.912Z,12.88
2019-04-21T07:29:17.115Z,12.94
2019-04-21T07:31:52.521Z,13.04
2019-04-21T07:34:19.753Z,13.08
2019-04-21T07:36:59.643Z,13.19
2019-04-21T07:39:18.509Z,13.23
2019-04-21T07:41:47.111Z,12.98
2019-04-21T07:44:21.032Z,13.09
2019-04-21T07:46:45.280Z,13.20
2019-04-21T07:49:46.711Z,13.11
2019-04-21T07:52:35.108Z,13.09
2019-04-21T07:57:35.154Z,13.04
2019-04-21T08:00:26.880Z,12.94
2019-04-21T08:02:40.639Z,13.12
2019-04-21T08:07:51.972Z,13.28
2019-04-21T08:10:15.618Z,13.12
2019-04-21T08:12:48.914Z,13.14
2019-04-21T08:15:30.628Z,13.21
2019-04-21T08:17:53.360Z,13.02
2019-04-21T08:20:31.389Z,13.36
2019-04-21T08:23:11.060Z,13.66
2019-04-21T08:25:34.909Z,13.85
2019-04-21T08:28:05.712Z,13.80
2019-04-21T08:30:54.356Z,13.72
2019-04-21T08:33:26.241Z,13.55
2019-04-21T08:36:06.008Z,13.50
2019-04-21T08:38:20.059Z,13.44
2019-04-21T08:40:51.073Z,13.55
2019-04-21T08:43:30.676Z,13.61
2019-04-21T08:45:57.672Z,13.73
2019-04-21T08:48:33.443Z,13.82
2019-04-21T08:51:18.526Z,13.82
2019-04-21T08:53:34.898Z,13.57
2019-04-21T08:56:09.996Z,13.15
2019-04-21T08:59:07.484Z,13.21
2019-04-21T09:01:50.083Z,13.13
2019-04-21T09:04:23.364Z,12.99
2019-04-21T09:09:31.956Z,13.35
2019-04-21T09:12:02.707Z,13.45
2019-04-21T09:14:36.397Z,13.27
2019-04-21T09:17:01.656Z,13.02
2019-04-21T09:22:13.199Z,13.21
2019-04-21T09:24:43.013Z,13.49
2019-04-21T09:27:15.853Z,13.66
2019-04-21T09:29:38.310Z,13.76
2019-04-21T09:32:03.423Z,13.67
2019-04-21T09:34:38.535Z,13.79
2019-04-21T09:37:23.549Z,13.68
2019-04-21T09:39:43.720Z,13.56
2019-04-21T09:42:11.559Z,13.77
2019-04-21T09:44:44.389Z,13.40
2019-04-21T09:47:19.027Z,13.43
2019-04-21T09:49:47.456Z,13.61
2019-04-21T09:52:20.933Z,13.84
2019-04-21T09:54:58.635Z,13.76
2019-04-21T09:57:34.685Z,13.53
2019-04-21T10:00:02.471Z,13.54
2019-04-21T10:02:39.957Z,13.57
2019-04-21T10:05:02.316Z,13.60
2019-04-21T10:07:37.046Z,13.73
2019-04-21T10:10:08.358Z,13.90
2019-04-21T10:12:39.175Z,13.67
2019-04-21T10:15:10.674Z,13.56
2019-04-21T10:17:43.953Z,13.46
2019-04-21T10:20:15.028Z,13.71
2019-04-21T10:22:46.758Z,13.78
2019-04-21T10:25:18.688Z,14.00
2019-04-21T10:27:49.650Z,14.13
2019-04-21T10:30:20.551Z,14.19
2019-04-21T10:32:54.393Z,13.92
2019-04-21T10:35:26.204Z,13.78
2019-04-21T10:38:06.748Z,14.03
2019-04-21T10:40:33.141Z,14.18
2019-04-21T10:43:01.650Z,13.91
2019-04-21T10:45:32.784Z,13.95
2019-04-21T10:48:05.145Z,13.77
2019-04-21T10:50:37.041Z,13.75
2019-04-21T10:53:09.345Z,14.02
2019-04-21T10:55:55.693Z,14.16
2019-04-21T10:58:20.366Z,14.25
2019-04-21T11:00:52.785Z,14.11
2019-04-21T11:03:35.304Z,13.80
2019-04-21T11:06:08.498Z,13.58
2019-04-21T11:08:44.120Z,13.61
2019-04-21T11:11:14.135Z,13.81
2019-04-21T11:13:46.290Z,13.86
2019-04-21T11:16:19.331Z,13.87
2019-04-21T11:18:49.955Z,13.93
2019-04-21T11:21:20.853Z,14.06
2019-04-21T11:23:52.208Z,14.16
2019-04-21T11:26:24.522Z,14.04
2019-04-21T11:28:58.902Z,14.24
2019-04-21T11:31:29.616Z,14.44
2019-04-21T11:34:00.909Z,14.12
2019-04-21T11:36:33.171Z,14.01
2019-04-21T11:39:27.232Z,14.11
2019-04-21T11:41:45.782Z,14.36
2019-04-21T11:44:18.294Z,14.07
2019-04-21T11:46:52.179Z,13.83
2019-04-21T11:49:24.244Z,13.85
2019-04-21T11:51:56.495Z,13.93
2019-04-21T11:54:28.792Z,13.99
2019-04-21T11:57:03.166Z,13.86
2019-04-21T11:59:33.449Z,14.02
2019-04-21T12:02:05.575Z,14.17
2019-04-21T12:04:36.371Z,14.05
2019-04-21T12:07:07.270Z,14.13
2019-04-21T12:09:39.470Z,14.38
2019-04-21T12:12:11.598Z,14.28
2019-04-21T12:14:43.827Z,14.44
2019-04-21T12:17:16.054Z,14.66
2019-04-21T12:19:48.552Z,14.77
2019-04-21T12:22:23.842Z,14.84
2019-04-21T12:24:51.743Z,14.95
2019-04-21T12:27:22.530Z,14.99
2019-04-21T12:29:53.479Z,15.09
2019-04-21T12:32:26.327Z,15.23
2019-04-21T12:34:57.823Z,15.15
2019-04-21T12:37:28.993Z,15.28
2019-04-21T12:40:00.800Z,15.36
2019-04-21T12:42:32.411Z,15.24
2019-04-21T12:45:08.169Z,14.96
2019-04-21T12:47:40.186Z,14.96
2019-04-21T12:50:12.773Z,14.72
2019-04-21T12:52:43.660Z,14.43
2019-04-21T12:55:15.467Z,14.12
2019-04-21T12:57:47.581Z,14.10
2019-04-21T13:00:20.900Z,14.17
2019-04-21T13:02:52.015Z,14.28
2019-04-21T13:05:22.805Z,14.52
2019-04-21T13:07:53.623Z,14.72
2019-04-21T13:10:24.436Z,14.80
2019-04-21T13:12:56.287Z,14.77
2019-04-21T13:15:27.404Z,14.80
2019-04-21T13:17:58.482Z,14.84
2019-04-21T13:20:32.071Z,14.68
2019-04-21T13:23:03.815Z,14.63
2019-04-21T13:25:35.939Z,14.52
2019-04-21T13:28:07.040Z,14.43
2019-04-21T13:30:40.226Z,14.38
2019-04-21T13:33:11.368Z,14.42
2019-04-21T13:35:44.496Z,14.56
2019-04-21T13:38:24.361Z,14.56
2019-04-21T13:41:22.847Z,14.54
2019-04-21T13:43:39.174Z,14.59
2019-04-21T13:46:10.270Z,14.77
2019-04-21T13:48:42.401Z,14.91
2019-04-21T13:51:13.563Z,14.99
2019-04-21T13:53:45.653Z,15.04
2019-04-21T13:56:18.361Z,15.16
2019-04-21T13:58:50.496Z,15.22
2019-04-21T14:01:27.687Z,15.18
2019-04-21T14:03:59.407Z,15.35
2019-04-21T14:06:32.138Z,15.36
2019-04-21T14:09:07.311Z,15.42
2019-04-21T14:11:38.076Z,15.36
2019-04-21T14:14:10.265Z,15.26
2019-04-21T14:16:42.230Z,15.02
2019-04-21T14:19:13.207Z,15.17
2019-04-21T14:21:46.423Z,15.32
2019-04-21T14:24:17.217Z,15.37
2019-04-21T14:26:48.025Z,15.27
2019-04-21T14:29:21.661Z,15.44
2019-04-21T14:31:52.549Z,15.61
2019-04-21T14:34:23.865Z,15.42
2019-04-21T14:36:55.008Z,15.29
2019-04-21T14:39:26.410Z,15.12
2019-04-21T14:41:58.138Z,14.80
2019-04-21T14:44:29.225Z,14.74
2019-04-21T14:47:01.380Z,14.54
2019-04-21T14:49:53.214Z,14.40
2019-04-21T14:52:26.852Z,14.30
2019-04-21T14:55:02.841Z,14.17
2019-04-21T14:57:33.596Z,14.03
2019-04-21T15:00:13.420Z,13.99
2019-04-21T15:02:45.476Z,13.79
2019-04-21T15:05:17.567Z,13.73
2019-04-21T15:07:48.959Z,13.57
2019-04-21T15:10:25.256Z,13.59
2019-04-21T15:12:52.109Z,13.51
2019-04-21T15:15:25.569Z,13.41
2019-04-21T15:17:57.817Z,13.41
2019-04-21T15:20:29.028Z,13.30
2019-04-21T15:23:00.121Z,13.34
2019-04-21T15:25:32.235Z,13.28
2019-04-21T15:28:05.442Z,13.30
2019-04-21T15:30:36.601Z,13.23
2019-04-21T15:33:08.556Z,13.26
2019-04-21T15:35:40.681Z,13.23
2019-04-21T15:38:11.842Z,13.26
2019-04-21T15:40:51.522Z,13.19
2019-04-21T15:43:15.081Z,13.13
2019-04-21T15:45:46.774Z,13.15
2019-04-21T15:48:18.249Z,13.05
2019-04-21T15:50:51.531Z,12.93
2019-04-21T15:53:23.603Z,13.00
2019-04-21T15:55:58.993Z,13.02
2019-04-21T15:58:32.421Z,12.98
2019-04-21T16:01:04.851Z,12.80
2019-04-21T16:03:36.534Z,12.71
2019-04-21T16:06:07.705Z,12.55
2019-04-21T16:08:39.531Z,12.61
2019-04-21T16:11:11.364Z,12.57
2019-04-21T16:13:43.524Z,12.54
2019-04-21T16:16:16.751Z,12.48
2019-04-21T16:18:47.907Z,12.47
2019-04-21T16:21:22.153Z,12.26
2019-04-21T16:23:54.144Z,12.10
2019-04-21T16:26:26.443Z,12.13
2019-04-21T16:28:57.518Z,11.97
2019-04-21T16:31:28.157Z,11.80
2019-04-21T16:33:58.903Z,11.68
2019-04-21T16:36:29.635Z,11.49
2019-04-21T16:39:01.737Z,11.43
2019-04-21T16:41:33.956Z,11.44
2019-04-21T16:44:05.167Z,11.25
2019-04-21T16:46:35.806Z,11.15
2019-04-21T16:49:07.541Z,11.13
2019-04-21T16:51:38.476Z,10.97
2019-04-21T16:54:14.078Z,11.02
2019-04-21T16:56:50.077Z,11.01
2019-04-21T16:59:22.524Z,11.07
2019-04-21T17:01:54.447Z,11.15
2019-04-21T17:04:28.617Z,11.01
2019-04-21T17:07:00.871Z,11.03
2019-04-21T17:09:32.630Z,10.90
2019-04-21T17:12:07.404Z,10.92
2019-04-21T17:14:53.657Z,10.78
2019-04-21T17:17:32.279Z,10.64
2019-04-21T17:19:46.566Z,10.76
2019-04-21T17:22:13.871Z,10.93
2019-04-21T17:24:46.391Z,10.91
2019-04-21T17:27:17.484Z,10.93
2019-04-21T17:29:48.681Z,10.78
2019-04-21T17:32:20.478Z,10.89
2019-04-21T17:34:52.161Z,10.79
2019-04-21T17:37:25.125Z,10.71
2019-04-21T17:39:56.508Z,10.63
2019-04-21T17:42:36.365Z,10.55
2019-04-21T17:45:01.306Z,10.40
2019-04-21T17:47:45.004Z,10.27
2019-04-21T17:50:23.283Z,10.37
2019-04-21T17:53:06.541Z,10.27
2019-04-21T17:55:40.650Z,10.12
2019-04-21T17:58:27.268Z,10.22
2019-04-21T18:06:06.372Z,10.25
2019-04-21T18:08:47.420Z,10.37
2019-04-21T18:11:15.382Z,10.36
2019-04-21T18:13:37.592Z,10.36
2019-04-21T18:16:20.191Z,10.34
2019-04-21T18:18:41.181Z,10.30
2019-04-21T18:21:14.539Z,10.20
2019-04-21T18:24:00.138Z,10.20
2019-04-21T18:26:38.015Z,10.19
2019-04-21T18:29:03.417Z,10.00
2019-04-21T18:31:44.819Z,9.84
2019-04-21T18:34:22.798Z,9.83
2019-04-21T18:36:55.602Z,9.93
2019-04-21T18:39:45.314Z,9.97
2019-04-21T18:42:26.255Z,10.01
2019-04-21T18:45:37.242Z,9.97
2019-04-21T18:48:01.385Z,9.97
2019-04-21T18:50:41.759Z,9.72
2019-04-21T18:53:25.616Z,9.59
2019-04-21T18:55:57.536Z,9.69
2019-04-21T18:58:20.073Z,9.82
2019-04-21T19:00:52.943Z,9.68
2019-04-21T19:03:28.137Z,9.61
2019-04-21T19:06:05.145Z,9.62
2019-04-21T19:08:53.632Z,9.57
2019-04-21T19:14:32.322Z,9.52
2019-04-21T19:17:00.484Z,9.52
2019-04-21T19:19:54.364Z,9.42
2019-04-21T19:22:40.181Z,9.46
2019-04-21T19:25:16.416Z,9.39
2019-04-21T19:27:53.273Z,9.36
2019-04-21T19:30:29.825Z,9.31
2019-04-21T19:32:59.395Z,9.38
2019-04-21T19:35:14.955Z,9.68
2019-04-21T19:37:56.416Z,9.50
2019-04-21T19:40:40.857Z,9.51
2019-04-21T19:43:07.048Z,9.60
2019-04-21T19:45:42.262Z,9.50
2019-04-21T19:48:18.426Z,9.31
2019-04-21T19:50:57.845Z,9.23
2019-04-21T19:53:24.281Z,9.36
2019-04-21T19:55:40.610Z,9.59
2019-04-21T19:58:12.636Z,9.66
2019-04-21T20:00:44.472Z,9.73
2019-04-21T20:03:16.495Z,9.83
2019-04-21T20:05:59.275Z,9.79
2019-04-21T20:08:36.719Z,9.75
2019-04-21T20:11:10.448Z,9.73
2019-04-21T20:14:30.705Z,9.66
2019-04-21T20:16:18.976Z,9.55
2019-04-21T20:18:41.650Z,9.50
2019-04-21T20:21:06.112Z,9.62
2019-04-21T20:23:39.672Z,9.52
2019-04-21T20:26:11.525Z,9.43
2019-04-21T20:28:54.703Z,9.38
2019-04-21T20:31:36.072Z,9.42
2019-04-21T20:34:21.231Z,9.40
2019-04-21T20:36:47.637Z,9.35
2019-04-21T20:39:08.292Z,9.28
2019-04-21T20:41:47.663Z,9.25
2019-04-21T20:44:23.073Z,9.17
2019-04-21T20:46:59.654Z,9.14
2019-04-21T20:49:27.306Z,9.07
2019-04-21T20:52:10.814Z,9.11
2019-04-21T20:54:44.040Z,9.26
2019-04-21T20:57:11.469Z,9.29
2019-04-21T20:59:43.924Z,9.44
2019-04-21T21:02:19.957Z,9.53
2019-04-21T21:04:45.707Z,9.44
2019-04-21T21:07:40.493Z,9.27
2019-04-21T21:10:04.983Z,9.26
2019-04-21T21:12:42.969Z,9.36
2019-04-21T21:15:01.181Z,9.30
2019-04-21T21:17:48.419Z,9.18
2019-04-21T21:20:21.361Z,9.21
2019-04-21T21:22:42.280Z,9.03
2019-04-21T21:25:25.837Z,8.98
2019-04-21T21:27:48.273Z,9.18
2019-04-21T21:30:23.140Z,9.25
2019-04-21T21:33:05.684Z,9.12
2019-04-21T21:35:34.590Z,8.95
2019-04-21T21:38:09.949Z,8.67
2019-04-21T21:40:36.620Z,8.52
2019-04-21T21:42:57.325Z,8.52
2019-04-21T21:45:30.648Z,8.42
2019-04-21T21:48:20.818Z,8.29
2019-04-21T21:50:45.915Z,8.32
2019-04-21T21:53:14.497Z,8.40
2019-04-21T21:55:42.654Z,8.47
2019-04-21T21:58:19.380Z,8.39
2019-04-21T22:00:54.639Z,8.38
2019-04-21T22:03:28.375Z,8.43
2019-04-21T22:06:07.300Z,8.43
2019-04-21T22:08:32.378Z,8.65
2019-04-21T22:11:03.334Z,8.47
2019-04-21T22:13:47.530Z,8.33
2019-04-21T22:16:14.394Z,8.24
2019-04-21T22:19:11.458Z,8.08
2019-04-21T22:21:38.579Z,8.28
2019-04-21T22:23:57.651Z,8.20
2019-04-21T22:26:21.478Z,8.13
2019-04-21T22:28:53.807Z,8.16
2019-04-21T22:31:31.582Z,8.54
2019-04-21T22:34:04.821Z,8.43
2019-04-21T22:36:44.437Z,8.46
2019-04-21T22:39:24.764Z,8.42
2019-04-21T22:41:45.273Z,8.31
2019-04-21T22:44:18.762Z,8.16
2019-04-21T22:46:59.970Z,7.93
2019-04-21T22:49:23.731Z,8.01
2019-04-21T22:51:55.672Z,7.81
2019-04-21T22:54:32.618Z,7.74
2019-04-21T22:57:05.227Z,7.87
2019-04-21T22:59:32.421Z,7.80
2019-04-21T23:02:06.363Z,7.58
2019-04-21T23:04:43.513Z,7.62
2019-04-21T23:07:13.573Z,7.75
2019-04-21T23:09:42.955Z,7.89
2019-04-21T23:12:20.431Z,7.97
2019-04-21T23:14:55.483Z,7.75
2019-04-21T23:17:38.928Z,7.70
2019-04-21T23:20:10.258Z,7.59
2019-04-21T23:22:51.369Z,7.45
2019-04-21T23:25:13.623Z,7.30
2019-04-21T23:27:46.971Z,7.19
2019-04-21T23:30:32.274Z,7.16
2019-04-21T23:32:48.821Z,7.15
2019-04-21T23:35:18.016Z,7.12
2019-04-21T23:37:51.041Z,7.12
2019-04-21T23:40:21.357Z,7.11
2019-04-21T23:42:49.203Z,7.14
2019-04-21T23:45:25.112Z,7.23
2019-04-21T23:48:10.866Z,7.14
2019-04-21T23:50:37.909Z,7.22
2019-04-21T23:53:01.645Z,7.08
2019-04-21T23:55:32.464Z,7.01
2019-04-21T23:58:13.401Z,6.81
